Time;durP1;ratioP1;P1;durP2;ratioP2;P2;SDS_P1;SDS_P2;PMS_P1;PMS_P2;Temp;Humidity;BMP_temperature;BMP_pressure;BME280_temperature;BME280_humidity;BME280_pressure;Samples;Min_cycle;Max_cycle;Signal;HPM_P1;HPM_P2
2022/11/03 00:00:59;;;;;;;22.75;6.82;;;8.80;82.60;;;;;;4998160;28;20126;-63
2022/11/03 00:03:25;;;;;;;21.50;5.47;;;8.80;82.90;;;;;;5001420;28;20042;-60
2022/11/03 00:06:03;;;;;;;29.35;5.25;;;8.70;83.00;;;;;;5000853;28;20030;-64
2022/11/03 00:08:37;;;;;;;25.02;5.30;;;8.80;83.10;;;;;;5002283;28;20045;-64
2022/11/03 00:11:13;;;;;;;16.50;5.30;;;8.80;83.00;;;;;;4997019;28;20230;-62
2022/11/03 00:13:43;;;;;;;44.50;6.18;;;8.80;83.40;;;;;;5004162;28;20037;-63
2022/11/03 00:16:10;;;;;;;19.75;6.20;;;8.70;83.40;;;;;;5000023;28;20160;-62
2022/11/03 00:18:37;;;;;;;21.52;5.53;;;8.70;83.60;;;;;;5006314;28;20284;-63
2022/11/03 00:21:05;;;;;;;34.42;6.03;;;8.70;83.80;;;;;;5002761;28;20050;-62
2022/11/03 00:23:33;;;;;;;19.95;5.82;;;8.70;84.60;;;;;;5006448;28;20513;-62
2022/11/03 00:26:08;;;;;;;24.45;5.97;;;8.70;83.80;;;;;;5000947;28;20045;-62
2022/11/03 00:28:34;;;;;;;25.10;5.60;;;8.60;84.10;;;;;;5007005;28;20061;-64
2022/11/03 00:31:01;;;;;;;22.00;6.50;;;8.60;84.00;;;;;;5003068;28;20030;-64
2022/11/03 00:33:33;;;;;;;15.55;6.90;;;8.60;84.30;;;;;;5006144;28;20139;-63
2022/11/03 00:36:00;;;;;;;14.23;6.30;;;8.60;84.60;;;;;;5003852;28;20077;-63
2022/11/03 00:38:27;;;;;;;35.10;5.82;;;8.60;84.60;;;;;;5008002;28;20132;-64
2022/11/03 00:41:00;;;;;;;11.65;5.57;;;8.70;84.70;;;;;;5009571;28;20460;-63
2022/11/03 00:43:27;;;;;;;24.83;5.22;;;8.70;84.80;;;;;;5007566;28;20034;-62
2022/11/03 00:45:54;;;;;;;21.58;5.93;;;8.70;84.80;;;;;;5008560;28;20030;-64
2022/11/03 00:48:29;;;;;;;42.85;5.10;;;8.70;84.90;;;;;;5007631;28;20121;-63
2022/11/03 00:51:14;;;;;;;38.58;6.10;;;8.80;85.00;;;;;;5004957;28;20062;-63
2022/11/03 00:53:50;;;;;;;44.03;4.97;;;8.80;85.30;;;;;;5005315;28;20116;-63
2022/11/03 00:56:19;;;;;;;33.20;5.05;;;8.80;85.00;;;;;;5005454;28;20034;-62
2022/11/03 00:58:45;;;;;;;64.22;6.57;;;8.80;84.80;;;;;;5002807;28;20046;-61
2022/11/03 01:01:13;;;;;;;23.05;4.47;;;8.80;84.80;;;;;;5002178;28;20048;-62
2022/11/03 01:03:41;;;;;;;45.45;5.95;;;8.80;84.90;;;;;;5003436;28;20073;-63
2022/11/03 01:08:53;;;;;;;23.92;4.57;;;8.80;85.00;;;;;;5000993;28;20381;-61
2022/11/03 01:14:06;;;;;;;38.30;5.78;;;8.70;85.20;;;;;;5000055;28;20104;-64
2022/11/03 01:16:32;;;;;;;4.85;4.15;;;8.70;85.20;;;;;;4999025;28;20041;-61
2022/11/03 01:18:59;;;;;;;57.13;4.40;;;8.70;85.20;;;;;;5004095;28;20042;-64
2022/11/03 01:21:24;;;;;;;63.67;5.93;;;8.70;85.20;;;;;;5000485;28;20048;-62
2022/11/03 01:23:50;;;;;;;48.95;4.38;;;8.70;85.20;;;;;;5000216;28;20555;-61
2022/11/03 01:26:16;;;;;;;45.28;4.50;;;8.70;85.10;;;;;;5003322;28;20501;-63
2022/11/03 01:28:46;;;;;;;25.73;4.43;;;8.70;85.20;;;;;;5004535;28;20042;-63
2022/11/03 01:31:13;;;;;;;8.57;3.70;;;8.60;85.20;;;;;;4999506;28;20041;-64
2022/11/03 01:33:40;;;;;;;25.48;3.35;;;8.60;85.20;;;;;;5000367;28;20041;-63
2022/11/03 01:36:06;;;;;;;9.35;4.03;;;8.60;85.50;;;;;;4999988;28;20056;-63
2022/11/03 01:38:33;;;;;;;23.52;3.92;;;8.60;85.80;;;;;;4998866;28;20056;-63
2022/11/03 01:41:00;;;;;;;38.63;4.47;;;8.60;85.90;;;;;;4999280;28;20401;-63
2022/11/03 01:43:27;;;;;;;10.18;4.10;;;8.70;86.00;;;;;;4998584;28;20069;-63
2022/11/03 01:46:22;;;;;;;14.10;4.07;;;8.70;86.10;;;;;;5000069;28;20060;-63
2022/11/03 01:48:56;;;;;;;8.73;4.03;;;8.70;86.80;;;;;;4990238;28;20034;-61
2022/11/03 01:51:23;;;;;;;47.80;4.85;;;8.80;86.30;;;;;;4999996;28;20066;-63
2022/11/03 01:53:53;;;;;;;68.20;5.32;;;8.80;86.20;;;;;;4998889;28;20057;-63
2022/11/03 01:56:20;;;;;;;55.60;5.00;;;8.80;86.00;;;;;;4999058;28;20037;-63
2022/11/03 01:58:49;;;;;;;62.78;4.70;;;8.80;85.50;;;;;;4998388;28;20042;-62
2022/11/03 02:01:16;;;;;;;59.70;4.43;;;8.80;85.20;;;;;;5002541;28;20029;-63
2022/11/03 02:03:47;;;;;;;38.60;5.25;;;8.80;85.10;;;;;;4996899;28;20048;-62
2022/11/03 02:06:13;;;;;;;25.02;4.30;;;8.70;85.20;;;;;;5002713;28;20041;-64
2022/11/03 02:08:48;;;;;;;39.53;4.30;;;8.70;85.30;;;;;;5004530;28;21923;-62
2022/11/03 02:14:11;;;;;;;95.05;6.15;;;8.70;85.50;;;;;;4976562;28;20199;-64
2022/11/03 02:16:38;;;;;;;35.83;4.82;;;8.60;85.60;;;;;;4999797;28;20058;-63
2022/11/03 02:19:12;;;;;;;97.00;6.20;;;8.60;85.60;;;;;;5002950;28;20034;-65
2022/11/03 02:21:57;;;;;;;104.80;5.38;;;8.50;85.90;;;;;;5003034;28;20030;-62
2022/11/03 02:24:39;;;;;;;10.05;4.00;;;8.50;86.00;;;;;;5003253;28;20046;-64
2022/11/03 02:27:05;;;;;;;96.60;6.32;;;8.50;86.00;;;;;;5005163;28;20387;-63
2022/11/03 02:29:30;;;;;;;98.00;5.93;;;8.50;86.00;;;;;;5002306;28;20045;-63
2022/11/03 02:32:18;;;;;;;62.30;4.97;;;8.40;86.00;;;;;;5000520;28;20049;-61
2022/11/03 02:34:54;;;;;;;62.67;5.22;;;8.40;86.20;;;;;;4997848;28;20042;-63
2022/11/03 02:37:27;;;;;;;47.45;4.93;;;8.40;86.10;;;;;;5004020;28;20049;-63
2022/11/03 02:40:12;;;;;;;35.90;4.50;;;8.30;86.10;;;;;;5006633;28;20033;-64
2022/11/03 02:42:41;;;;;;;68.93;5.00;;;8.30;86.60;;;;;;5004841;28;20038;-64
2022/11/03 02:45:09;;;;;;;15.45;4.70;;;8.30;86.70;;;;;;5005812;28;20432;-64
2022/11/03 02:47:37;;;;;;;54.25;5.78;;;8.30;86.90;;;;;;5004907;28;20034;-64
2022/11/03 02:50:07;;;;;;;71.40;6.35;;;8.30;87.30;;;;;;5004820;28;20060;-63
2022/11/03 02:52:44;;;;;;;29.27;5.75;;;8.40;87.40;;;;;;5005237;28;20043;-64
2022/11/03 02:55:35;;;;;;;65.85;6.45;;;8.40;87.70;;;;;;5005494;28;20038;-63
2022/11/03 02:58:22;;;;;;;54.45;5.57;;;8.50;88.20;;;;;;5002068;28;20033;-64
2022/11/03 03:00:59;;;;;;;74.90;6.00;;;8.50;87.60;;;;;;5002512;28;20720;-62
2022/11/03 03:03:34;;;;;;;30.35;5.45;;;8.50;87.70;;;;;;4999890;28;20046;-63
2022/11/03 03:06:10;;;;;;;67.57;5.50;;;8.60;87.80;;;;;;4997388;28;22177;-62
2022/11/03 03:08:41;;;;;;;62.63;5.78;;;8.60;87.70;;;;;;5001053;28;20053;-61
2022/11/03 03:11:09;;;;;;;54.17;5.88;;;8.60;87.60;;;;;;4994485;28;20084;-63
2022/11/03 03:13:36;;;;;;;18.67;5.22;;;8.70;87.60;;;;;;5002790;28;20088;-62
2022/11/03 03:16:14;;;;;;;92.78;7.22;;;8.70;87.60;;;;;;4998945;28;20034;-63
2022/11/03 03:18:51;;;;;;;48.13;5.72;;;8.80;87.60;;;;;;5002167;28;20030;-63
2022/11/03 03:21:29;;;;;;;52.40;5.72;;;8.80;87.50;;;;;;4997872;28;20033;-61
2022/11/03 03:24:02;;;;;;;39.78;5.32;;;8.80;87.10;;;;;;5002945;28;20405;-61
2022/11/03 03:26:32;;;;;;;66.80;6.10;;;8.80;86.90;;;;;;5001362;28;20610;-63
2022/11/03 03:29:02;;;;;;;60.28;6.40;;;8.80;87.10;;;;;;4999661;28;20383;-64
2022/11/03 03:31:31;;;;;;;13.57;5.78;;;8.80;86.70;;;;;;4998871;28;20075;-63
2022/11/03 03:33:58;;;;;;;32.55;6.18;;;8.80;86.50;;;;;;4997036;28;20789;-63
2022/11/03 03:36:27;;;;;;;21.23;6.05;;;8.80;86.60;;;;;;4999751;28;20056;-61
2022/11/03 03:38:59;;;;;;;46.97;6.53;;;8.80;86.50;;;;;;5000100;28;20112;-63
2022/11/03 03:41:27;;;;;;;10.90;5.55;;;8.80;86.60;;;;;;4997139;28;20049;-64
2022/11/03 03:43:56;;;;;;;30.27;6.25;;;8.70;86.20;;;;;;4999381;28;20321;-61
2022/11/03 03:46:25;;;;;;;19.80;5.22;;;8.70;86.40;;;;;;4998657;28;20210;-61
2022/11/03 03:48:50;;;;;;;23.27;5.47;;;8.70;86.50;;;;;;4999098;28;20042;-63
2022/11/03 03:51:21;;;;;;;60.08;6.18;;;8.70;86.60;;;;;;4996847;28;20049;-64
2022/11/03 03:53:51;;;;;;;7.32;5.18;;;8.60;86.60;;;;;;5001088;28;20038;-63
2022/11/03 03:56:28;;;;;;;12.18;4.97;;;8.60;86.40;;;;;;4996087;28;20034;-63
2022/11/03 03:58:54;;;;;;;43.40;5.00;;;8.60;86.50;;;;;;5001163;28;20042;-63
2022/11/03 04:01:20;;;;;;;11.25;4.60;;;8.60;86.40;;;;;;5000259;28;20038;-63
2022/11/03 04:03:45;;;;;;;6.90;4.60;;;8.60;86.50;;;;;;5000583;28;20092;-62
2022/11/03 04:06:11;;;;;;;6.28;3.80;;;8.70;86.70;;;;;;4997637;28;20030;-63
2022/11/03 04:08:36;;;;;;;9.05;4.22;;;8.60;86.70;;;;;;4999627;28;20045;-63
2022/11/03 04:22:17;;;;;;;5.37;3.87;;;8.70;86.20;;;;;;5000212;28;20033;-63
2022/11/03 04:24:46;;;;;;;23.63;4.55;;;8.80;86.20;;;;;;4999781;28;20283;-63
2022/11/03 04:27:17;;;;;;;4.35;3.88;;;8.80;86.00;;;;;;4995481;28;20034;-63
2022/11/03 04:29:43;;;;;;;4.40;3.53;;;8.80;86.00;;;;;;4997546;28;20092;-63
2022/11/03 04:32:17;;;;;;;10.18;4.38;;;8.80;85.80;;;;;;4994338;28;20061;-61
2022/11/03 04:34:46;;;;;;;54.38;4.78;;;8.70;85.90;;;;;;4998579;28;20050;-62
2022/11/03 04:37:12;;;;;;;53.78;4.57;;;8.80;85.80;;;;;;4998823;28;20107;-63
2022/11/03 04:39:38;;;;;;;21.70;4.38;;;8.70;85.50;;;;;;5005204;28;20045;-61
2022/11/03 04:42:21;;;;;;;36.00;4.20;;;8.70;85.40;;;;;;5003745;28;20417;-64
2022/11/03 04:44:48;;;;;;;14.32;4.05;;;8.70;85.70;;;;;;5005155;28;20120;-63
2022/11/03 04:47:16;;;;;;;38.60;5.00;;;8.70;85.40;;;;;;5005288;28;20038;-62
2022/11/03 04:49:43;;;;;;;12.63;3.80;;;8.70;85.30;;;;;;5003047;28;20042;-62
2022/11/03 04:52:21;;;;;;;71.47;4.55;;;8.70;85.30;;;;;;4999175;28;20041;-61
2022/11/03 04:54:49;;;;;;;19.23;3.85;;;8.70;85.10;;;;;;4997264;28;20037;-62
2022/11/03 04:57:16;;;;;;;8.25;3.80;;;8.70;85.00;;;;;;4999040;28;20054;-62
2022/11/03 04:59:47;;;;;;;67.35;4.15;;;8.70;85.20;;;;;;4997507;28;20586;-61
2022/11/03 05:02:16;;;;;;;27.90;4.30;;;8.60;85.10;;;;;;4997672;28;20395;-62
2022/11/03 05:04:42;;;;;;;25.23;4.10;;;8.60;85.00;;;;;;4999331;28;20069;-62
2022/11/03 05:07:27;;;;;;;9.55;6.05;;;8.60;85.10;;;;;;5000165;28;20076;-62
2022/11/03 05:09:53;;;;;;;83.10;21.48;;;8.60;85.20;;;;;;4998483;28;20064;-64
2022/11/03 05:12:19;;;;;;;25.70;6.13;;;8.60;85.10;;;;;;4997265;28;20080;-63
2022/11/03 05:14:45;;;;;;;10.57;4.32;;;8.60;85.00;;;;;;5003036;28;20034;-63
2022/11/03 05:17:22;;;;;;;41.83;4.07;;;8.60;85.20;;;;;;5004074;28;20040;-63
2022/11/03 05:20:00;;;;;;;168.45;7.05;;;8.60;85.20;;;;;;5005325;28;20049;-63
2022/11/03 05:22:30;;;;;;;83.82;4.75;;;8.60;85.10;;;;;;5002891;28;20040;-62
2022/11/03 05:24:59;;;;;;;9.55;3.45;;;8.60;84.70;;;;;;5001248;28;20304;-62
2022/11/03 05:27:26;;;;;;;10.25;5.97;;;8.50;84.60;;;;;;5001794;28;20044;-63
2022/11/03 05:29:53;;;;;;;15.45;4.80;;;8.50;84.90;;;;;;4996691;28;20449;-63
2022/11/03 05:32:23;;;;;;;25.15;4.07;;;8.50;85.10;;;;;;5003050;28;20026;-63
2022/11/03 05:34:51;;;;;;;4.60;4.10;;;8.50;85.20;;;;;;5003190;28;20056;-63
2022/11/03 05:37:32;;;;;;;21.83;4.25;;;8.50;85.30;;;;;;5005616;28;20083;-62
2022/11/03 05:40:20;;;;;;;10.45;4.22;;;8.50;85.50;;;;;;5005529;28;20033;-62
2022/11/03 05:42:55;;;;;;;5.60;4.25;;;8.50;85.30;;;;;;5005998;28;20124;-62
2022/11/03 05:45:32;;;;;;;;;;;8.50;85.30;;;;;;5006764;28;20040;-59
2022/11/03 05:47:59;;;;;;;16.77;3.35;;;8.50;86.40;;;;;;5006693;28;20020;-62
2022/11/03 05:50:27;;;;;;;34.17;4.05;;;8.50;85.00;;;;;;5005067;28;20041;-63
2022/11/03 05:52:57;;;;;;;4.53;4.13;;;8.50;85.10;;;;;;5007855;28;20493;-62
2022/11/03 05:55:28;;;;;;;61.45;4.95;;;8.50;85.20;;;;;;5005233;28;20151;-63
2022/11/03 05:58:00;;;;;;;114.20;7.05;;;8.50;85.30;;;;;;5006771;28;20044;-61
2022/11/03 06:00:38;;;;;;;65.40;5.45;;;8.50;85.00;;;;;;5005702;28;20042;-64
2022/11/03 06:03:05;;;;;;;91.75;5.32;;;8.50;84.80;;;;;;5005657;28;20044;-62
2022/11/03 06:05:32;;;;;;;22.05;4.13;;;8.40;84.50;;;;;;5008455;28;20433;-64
2022/11/03 06:08:01;;;;;;;11.52;4.78;;;8.40;84.60;;;;;;5007216;28;20048;-62
2022/11/03 06:10:32;;;;;;;23.63;5.10;;;8.30;85.10;;;;;;5006774;28;20406;-60
2022/11/03 06:13:03;;;;;;;13.55;4.25;;;8.30;85.30;;;;;;5008047;28;20036;-61
2022/11/03 06:15:32;;;;;;;5.85;4.18;;;8.30;85.50;;;;;;5008067;28;20038;-62
2022/11/03 06:17:59;;;;;;;5.78;4.10;;;8.30;85.70;;;;;;5008383;28;20030;-63
2022/11/03 06:20:26;;;;;;;12.00;4.40;;;8.30;85.90;;;;;;5007295;28;20452;-62
2022/11/03 06:22:54;;;;;;;7.13;3.95;;;8.30;85.90;;;;;;5007882;28;20034;-63
2022/11/03 06:25:28;;;;;;;11.70;4.22;;;8.30;85.90;;;;;;5008635;28;20026;-62
2022/11/03 06:27:59;;;;;;;9.77;3.80;;;8.40;86.20;;;;;;5008573;28;20064;-63
2022/11/03 06:30:33;;;;;;;20.23;4.72;;;8.40;86.10;;;;;;5007632;28;20050;-64
2022/11/03 06:33:12;;;;;;;41.35;5.07;;;8.40;86.70;;;;;;5008092;28;20110;-62
2022/11/03 06:35:38;;;;;;;24.10;5.05;;;8.40;85.70;;;;;;5007688;28;20045;-64
2022/11/03 06:38:13;;;;;;;22.23;5.68;;;8.40;85.30;;;;;;5008348;28;20030;-63
2022/11/03 06:40:39;;;;;;;39.70;5.65;;;8.40;85.20;;;;;;5007379;28;20599;-61
2022/11/03 06:43:17;;;;;;;21.02;4.60;;;8.40;85.00;;;;;;5005923;28;20038;-62
2022/11/03 06:45:50;;;;;;;19.20;4.72;;;8.40;85.30;;;;;;5007957;28;20034;-63
2022/11/03 06:48:21;;;;;;;38.35;5.20;;;8.30;85.50;;;;;;5007754;28;20041;-60
2022/11/03 06:50:46;;;;;;;36.25;4.80;;;8.30;85.60;;;;;;5007151;28;20034;-62
2022/11/03 06:53:20;;;;;;;33.80;4.70;;;8.30;85.50;;;;;;5007736;28;20034;-63
2022/11/03 06:55:47;;;;;;;18.92;4.75;;;8.30;85.70;;;;;;5003780;28;20034;-62
2022/11/03 06:58:23;;;;;;;29.58;4.57;;;8.30;85.60;;;;;;5006086;28;20041;-62
2022/11/03 07:00:49;;;;;;;18.73;4.50;;;8.30;85.80;;;;;;5004513;28;20049;-62
2022/11/03 07:03:33;;;;;;;51.53;6.38;;;8.20;85.60;;;;;;5003014;28;20037;-61
2022/11/03 07:06:10;;;;;;;28.25;4.30;;;8.20;86.00;;;;;;5004103;28;20053;-62
2022/11/03 07:08:43;;;;;;;17.05;4.68;;;8.20;85.70;;;;;;5002285;28;20040;-61
2022/11/03 07:11:16;;;;;;;21.98;4.60;;;8.20;85.90;;;;;;4998902;28;20045;-63
2022/11/03 07:13:42;;;;;;;21.75;5.18;;;8.20;86.30;;;;;;5004462;28;20041;-62
2022/11/03 07:16:26;;;;;;;16.23;4.65;;;8.20;86.20;;;;;;5003886;28;20029;-62
2022/11/03 07:18:52;;;;;;;10.00;7.75;;;8.20;86.90;;;;;;5004119;28;20030;-62
2022/11/03 07:21:31;;;;;;;10.63;5.15;;;8.10;86.40;;;;;;5005524;28;20084;-62
2022/11/03 07:24:12;;;;;;;14.50;4.90;;;8.20;86.80;;;;;;5002424;28;20393;-62
2022/11/03 07:26:37;;;;;;;7.28;4.90;;;8.20;86.70;;;;;;5002868;28;20494;-62
2022/11/03 07:29:03;;;;;;;10.43;4.55;;;8.20;86.80;;;;;;5004706;28;20038;-62
2022/11/03 07:31:30;;;;;;;35.20;5.25;;;8.20;87.00;;;;;;5004864;28;20065;-60
2022/11/03 07:33:57;;;;;;;17.25;4.57;;;8.20;87.30;;;;;;5004117;28;20760;-60
2022/11/03 07:36:25;;;;;;;25.85;5.20;;;8.30;87.30;;;;;;5002246;28;20033;-63
2022/11/03 07:38:53;;;;;;;39.13;5.93;;;8.30;87.30;;;;;;5004913;28;20512;-61
2022/11/03 07:41:23;;;;;;;21.52;5.72;;;8.30;87.10;;;;;;5004783;28;20088;-62
2022/11/03 07:43:54;;;;;;;16.38;5.22;;;8.40;87.10;;;;;;5004130;28;20536;-62
2022/11/03 07:46:21;;;;;;;25.52;5.07;;;8.40;87.20;;;;;;5006120;28;20040;-63
2022/11/03 07:48:48;;;;;;;41.60;5.38;;;8.40;87.10;;;;;;5003507;28;20038;-64
2022/11/03 07:51:30;;;;;;;33.78;5.18;;;8.40;87.10;;;;;;5004165;28;20093;-61
2022/11/03 07:54:07;;;;;;;7.65;5.25;;;8.50;86.90;;;;;;5003201;28;20029;-61
2022/11/03 07:56:39;;;;;;;7.75;5.22;;;8.50;86.90;;;;;;5002878;28;20048;-62
2022/11/03 07:59:08;;;;;;;56.40;5.88;;;8.50;87.10;;;;;;5003841;28;20763;-63
2022/11/03 08:01:36;;;;;;;25.83;5.20;;;8.50;87.10;;;;;;5007107;28;20350;-62
2022/11/03 08:04:16;;;;;;;26.63;5.40;;;8.50;86.90;;;;;;5003334;28;20129;-62
2022/11/03 08:06:42;;;;;;;17.75;5.43;;;8.50;87.20;;;;;;5002839;28;20034;-62
2022/11/03 08:09:07;;;;;;;22.48;6.35;;;8.50;86.90;;;;;;5004229;28;20034;-61
2022/11/03 08:11:34;;;;;;;29.00;6.30;;;8.50;87.00;;;;;;4998857;28;20153;-60
2022/11/03 08:13:59;;;;;;;11.68;5.20;;;8.60;87.10;;;;;;5004999;28;20634;-61
2022/11/03 08:16:25;;;;;;;23.63;5.43;;;8.60;87.20;;;;;;5004199;28;20090;-61
2022/11/03 08:18:51;;;;;;;10.23;5.05;;;8.60;87.20;;;;;;5003493;28;20041;-63
2022/11/03 08:21:16;;;;;;;12.40;5.72;;;8.60;87.30;;;;;;5001717;28;20038;-61
2022/11/03 08:23:42;;;;;;;11.63;5.95;;;8.60;87.40;;;;;;5009317;28;20468;-61
2022/11/03 08:26:08;;;;;;;26.98;6.13;;;8.60;87.50;;;;;;5004560;28;20171;-62
2022/11/03 08:28:34;;;;;;;20.05;5.55;;;8.70;87.60;;;;;;5003178;28;20497;-61
2022/11/03 08:31:03;;;;;;;17.42;5.63;;;8.70;87.40;;;;;;5003551;28;20148;-63
2022/11/03 08:33:30;;;;;;;12.02;9.00;;;8.70;87.40;;;;;;5008416;28;20560;-62
2022/11/03 08:35:56;;;;;;;8.60;7.28;;;8.70;87.70;;;;;;5008221;28;20066;-62
2022/11/03 08:38:21;;;;;;;6.22;5.63;;;8.70;88.80;;;;;;5005780;28;20026;-61
2022/11/03 08:40:47;;;;;;;5.80;5.28;;;8.70;88.10;;;;;;5006567;28;20042;-63
2022/11/03 08:43:12;;;;;;;14.00;7.88;;;8.70;88.00;;;;;;5007708;28;20048;-62
2022/11/03 08:45:38;;;;;;;11.85;6.50;;;8.80;88.00;;;;;;5007519;28;20038;-60
2022/11/03 08:48:04;;;;;;;7.28;5.18;;;8.80;87.90;;;;;;5007277;28;20501;-63
2022/11/03 08:50:29;;;;;;;8.70;4.68;;;8.90;88.00;;;;;;5005273;28;20041;-61
2022/11/03 08:52:55;;;;;;;8.02;5.13;;;8.90;87.80;;;;;;5007034;28;20037;-61
2022/11/03 08:55:20;;;;;;;9.25;5.57;;;9.00;87.80;;;;;;5007685;28;20552;-62
2022/11/03 08:57:46;;;;;;;6.70;5.25;;;9.00;87.70;;;;;;5006281;28;20034;-62
2022/11/03 09:00:12;;;;;;;7.38;5.35;;;9.00;87.60;;;;;;5005692;28;20490;-62
2022/11/03 09:02:38;;;;;;;6.40;5.32;;;9.00;87.60;;;;;;5000364;28;20169;-63
2022/11/03 09:05:04;;;;;;;6.32;5.05;;;9.10;87.80;;;;;;5007802;28;20133;-61
2022/11/03 09:07:30;;;;;;;6.30;5.20;;;9.10;87.80;;;;;;5007254;28;20042;-61
2022/11/03 09:09:56;;;;;;;5.18;4.78;;;9.20;88.00;;;;;;5006784;28;20050;-62
2022/11/03 09:12:21;;;;;;;6.63;5.93;;;9.20;88.00;;;;;;5003257;28;20084;-62
2022/11/03 09:14:47;;;;;;;6.93;5.60;;;9.30;87.80;;;;;;5007327;28;20113;-62
2022/11/03 09:17:13;;;;;;;7.03;5.78;;;9.30;87.60;;;;;;5007373;28;20401;-61
2022/11/03 09:19:38;;;;;;;6.50;5.90;;;9.30;87.60;;;;;;5007826;28;20037;-62
2022/11/03 09:22:04;;;;;;;8.18;6.15;;;9.40;87.60;;;;;;5006286;28;20532;-61
2022/11/03 09:24:30;;;;;;;6.07;5.45;;;9.40;87.60;;;;;;5006556;28;20322;-62
2022/11/03 09:26:55;;;;;;;7.18;6.15;;;9.50;87.50;;;;;;5007996;28;20029;-63
2022/11/03 09:29:21;;;;;;;8.18;6.55;;;9.50;87.60;;;;;;5007107;28;20057;-61
2022/11/03 09:31:47;;;;;;;8.32;6.28;;;9.60;87.70;;;;;;5007997;28;20139;-61
2022/11/03 09:34:13;;;;;;;6.60;5.70;;;9.60;87.60;;;;;;5006302;28;20483;-60
2022/11/03 09:36:39;;;;;;;7.28;5.68;;;9.60;87.30;;;;;;5007071;28;20054;-60
2022/11/03 09:39:04;;;;;;;7.50;5.70;;;9.70;87.20;;;;;;5007163;28;20412;-61
2022/11/03 09:41:30;;;;;;;6.68;6.00;;;9.70;87.10;;;;;;5008023;28;20041;-63
2022/11/03 09:43:57;;;;;;;7.15;6.45;;;9.70;87.10;;;;;;5007095;28;20449;-62
2022/11/03 09:46:24;;;;;;;7.93;6.63;;;9.80;87.20;;;;;;5008469;28;20030;-63
2022/11/03 09:48:50;;;;;;;7.35;5.95;;;9.80;87.10;;;;;;5006339;28;20101;-61
2022/11/03 09:51:19;;;;;;;8.57;6.78;;;9.80;87.10;;;;;;5008403;28;20460;-63
2022/11/03 09:53:45;;;;;;;9.23;7.22;;;9.80;87.50;;;;;;5005446;28;20052;-62
2022/11/03 09:56:11;;;;;;;9.65;7.43;;;9.80;87.50;;;;;;5007564;28;20033;-62
2022/11/03 09:58:37;;;;;;;9.93;8.05;;;9.80;87.60;;;;;;5007202;28;20034;-61
2022/11/03 10:01:03;;;;;;;22.02;12.93;;;9.80;87.80;;;;;;5006878;28;20034;-63
2022/11/03 10:03:29;;;;;;;18.73;11.05;;;9.90;87.90;;;;;;5006123;28;20034;-61
2022/11/03 10:05:54;;;;;;;20.40;12.50;;;9.90;87.90;;;;;;5005873;28;20029;-61
2022/11/03 10:08:27;;;;;;;13.10;8.93;;;9.90;88.70;;;;;;5006940;28;20540;-62
2022/11/03 10:10:53;;;;;;;11.23;8.10;;;10.00;87.90;;;;;;5003679;28;20034;-64
2022/11/03 10:13:37;;;;;;;9.98;7.95;;;10.00;87.90;;;;;;5005115;28;20493;-63
2022/11/03 10:16:06;;;;;;;14.20;9.50;;;10.10;88.00;;;;;;5007367;28;20109;-62
2022/11/03 10:18:33;;;;;;;14.68;8.15;;;10.10;87.80;;;;;;5005194;28;20045;-64
2022/11/03 10:21:11;;;;;;;19.52;8.32;;;10.10;87.60;;;;;;5008183;28;20121;-63
2022/11/03 10:23:37;;;;;;;16.50;10.30;;;10.10;87.30;;;;;;5006637;28;20042;-63
2022/11/03 10:26:17;;;;;;;11.38;8.90;;;10.10;87.30;;;;;;5005154;28;20034;-63
2022/11/03 10:29:09;;;;;;;15.90;7.72;;;10.10;87.50;;;;;;5002164;28;20125;-61
2022/11/03 10:31:36;;;;;;;10.77;7.97;;;10.10;87.50;;;;;;5002322;28;20034;-64
2022/11/03 10:34:02;;;;;;;10.95;7.95;;;10.10;87.30;;;;;;5005953;28;20057;-62
2022/11/03 10:36:31;;;;;;;10.95;8.13;;;10.00;87.40;;;;;;5003855;28;20092;-62
2022/11/03 10:38:57;;;;;;;14.02;8.57;;;10.00;87.80;;;;;;5007652;28;20030;-63
2022/11/03 10:41:25;;;;;;;9.73;7.85;;;10.00;88.00;;;;;;5006863;28;20033;-62
2022/11/03 10:44:11;;;;;;;10.23;7.78;;;10.00;88.10;;;;;;5006288;28;20046;-61
2022/11/03 10:46:54;;;;;;;9.77;7.75;;;10.00;88.50;;;;;;5006410;28;20061;-64
2022/11/03 10:49:19;;;;;;;10.93;8.20;;;10.00;88.20;;;;;;5005998;28;20098;-62
2022/11/03 10:51:50;;;;;;;12.80;7.72;;;10.10;88.30;;;;;;5004553;28;20042;-61
2022/11/03 10:54:19;;;;;;;12.43;8.63;;;10.10;88.60;;;;;;5005127;28;20039;-63
2022/11/03 10:56:46;;;;;;;10.88;8.23;;;10.10;88.60;;;;;;5004374;28;20513;-63
2022/11/03 10:59:26;;;;;;;12.38;10.13;;;10.20;88.70;;;;;;5004750;28;20760;-61
2022/11/03 11:01:51;;;;;;;10.60;8.85;;;10.20;88.80;;;;;;5005138;28;20545;-62
2022/11/03 11:04:19;;;;;;;11.13;7.95;;;10.30;88.60;;;;;;5006441;28;20045;-61
2022/11/03 11:06:45;;;;;;;11.50;8.70;;;10.40;88.60;;;;;;5003227;28;20109;-62
2022/11/03 11:09:14;;;;;;;10.35;8.77;;;10.40;88.60;;;;;;5003955;28;20447;-63
2022/11/03 11:12:05;;;;;;;9.25;7.95;;;10.40;88.60;;;;;;5001279;28;20034;-63
2022/11/03 11:14:33;;;;;;;12.85;8.82;;;10.50;89.00;;;;;;5005314;28;20034;-63
2022/11/03 11:17:00;;;;;;;13.73;9.70;;;10.60;88.50;;;;;;5005550;28;20489;-60
2022/11/03 11:19:27;;;;;;;11.23;9.20;;;10.60;88.50;;;;;;5005656;28;20045;-61
2022/11/03 11:21:52;;;;;;;12.75;10.10;;;10.60;88.40;;;;;;5005935;28;20705;-62
2022/11/03 11:24:41;;;;;;;11.77;9.63;;;10.70;88.50;;;;;;5006516;28;20038;-64
2022/11/03 11:27:34;;;;;;;12.73;10.23;;;10.70;89.00;;;;;;4996189;28;20048;-63
2022/11/03 11:30:03;;;;;;;10.98;8.73;;;10.80;88.90;;;;;;5005393;28;20042;-61
2022/11/03 11:32:41;;;;;;;9.90;8.73;;;10.80;88.50;;;;;;5003998;28;20116;-62
2022/11/03 11:35:22;;;;;;;11.55;9.00;;;10.80;88.60;;;;;;5004929;28;20545;-62
2022/11/03 11:37:47;;;;;;;11.15;9.23;;;10.90;88.60;;;;;;5006210;28;20390;-62
2022/11/03 11:40:33;;;;;;;9.95;8.60;;;10.90;88.20;;;;;;5005752;28;20026;-62
2022/11/03 11:43:02;;;;;;;10.55;8.02;;;10.90;88.60;;;;;;4993690;28;20087;-62
2022/11/03 11:46:05;;;;;;;8.75;7.82;;;11.00;88.20;;;;;;5006123;28;20103;-61
2022/11/03 11:48:31;;;;;;;10.75;8.02;;;11.00;88.50;;;;;;5005189;28;20038;-62
2022/11/03 11:50:57;;;;;;;9.52;8.55;;;11.00;88.10;;;;;;5004206;28;20397;-62
2022/11/03 11:53:25;;;;;;;11.15;9.38;;;11.00;88.30;;;;;;5005448;28;20029;-61
2022/11/03 11:55:57;;;;;;;10.27;8.77;;;11.00;88.30;;;;;;5004853;28;20037;-63
2022/11/03 11:58:32;;;;;;;10.70;8.90;;;11.10;88.40;;;;;;5005983;28;20038;-61
2022/11/03 12:01:03;;;;;;;10.55;9.25;;;11.10;89.20;;;;;;5004507;28;20041;-63
2022/11/03 12:03:36;;;;;;;10.55;8.85;;;11.10;89.00;;;;;;5004198;28;20049;-63
2022/11/03 12:06:02;;;;;;;14.23;9.20;;;11.20;88.20;;;;;;5007504;28;20034;-62
2022/11/03 12:08:30;;;;;;;10.05;8.13;;;11.20;88.10;;;;;;5008322;28;20037;-63
2022/11/03 12:11:04;;;;;;;11.38;9.30;;;11.20;88.20;;;;;;5007527;28;20137;-62
2022/11/03 12:13:33;;;;;;;11.68;8.80;;;11.30;88.40;;;;;;5005607;28;20026;-61
2022/11/03 12:15:59;;;;;;;11.15;8.98;;;11.30;88.40;;;;;;5009437;28;20026;-62
2022/11/03 12:18:43;;;;;;;12.88;9.13;;;11.40;88.50;;;;;;5009051;28;20046;-62
2022/11/03 12:21:32;;;;;;;11.73;8.70;;;11.40;88.50;;;;;;5008995;28;20042;-64
2022/11/03 12:23:58;;;;;;;11.85;8.20;;;11.40;88.30;;;;;;5008346;28;20448;-63
2022/11/03 12:26:23;;;;;;;9.30;7.82;;;11.50;88.10;;;;;;5010187;28;20042;-62
2022/11/03 12:28:49;;;;;;;9.25;8.15;;;11.60;88.00;;;;;;5007554;28;20152;-62
2022/11/03 12:31:15;;;;;;;11.82;8.68;;;11.60;87.90;;;;;;5008512;28;20505;-63
2022/11/03 12:33:40;;;;;;;9.63;8.18;;;11.60;87.80;;;;;;5007372;28;20125;-62
2022/11/03 12:36:06;;;;;;;9.90;8.32;;;11.60;87.80;;;;;;5008239;28;20391;-63
2022/11/03 12:38:32;;;;;;;9.73;8.73;;;11.70;88.00;;;;;;5008668;28;20038;-62
2022/11/03 12:41:19;;;;;;;10.00;9.00;;;11.70;87.90;;;;;;5007982;28;20599;-64
2022/11/03 12:43:43;;;;;;;10.80;8.43;;;11.70;87.80;;;;;;5008326;28;20490;-61
2022/11/03 12:46:08;;;;;;;12.40;8.63;;;11.80;87.80;;;;;;5009782;28;20042;-61
2022/11/03 12:48:34;;;;;;;9.55;8.55;;;11.80;87.80;;;;;;5005694;28;20036;-61
2022/11/03 12:50:59;;;;;;;13.85;9.05;;;11.90;87.60;;;;;;5006167;28;20429;-61
2022/11/03 12:53:25;;;;;;;12.23;9.43;;;11.90;87.70;;;;;;5011184;28;20033;-62
2022/11/03 12:55:50;;;;;;;15.00;10.55;;;12.00;87.70;;;;;;5007849;28;20065;-59
2022/11/03 12:58:16;;;;;;;23.70;11.73;;;12.00;87.70;;;;;;5008494;28;20133;-63
2022/11/03 13:00:41;;;;;;;13.10;9.63;;;12.10;87.60;;;;;;5007521;28;20045;-62
2022/11/03 13:03:07;;;;;;;12.98;9.60;;;12.10;87.60;;;;;;5008802;28;20042;-62
2022/11/03 13:05:33;;;;;;;16.52;9.40;;;12.10;87.80;;;;;;5008056;28;20409;-63
2022/11/03 13:07:58;;;;;;;14.13;8.95;;;12.10;87.70;;;;;;5007737;28;20104;-62
2022/11/03 13:10:24;;;;;;;16.52;9.30;;;12.20;87.60;;;;;;5008672;28;20457;-61
2022/11/03 13:12:49;;;;;;;17.15;9.38;;;12.20;87.40;;;;;;5001804;28;20038;-61
2022/11/03 13:15:15;;;;;;;17.17;9.48;;;12.20;87.40;;;;;;5008004;28;20105;-63
2022/11/03 13:17:41;;;;;;;14.20;8.98;;;12.30;87.40;;;;;;5008598;28;20041;-62
2022/11/03 13:20:07;;;;;;;12.35;9.00;;;12.30;87.30;;;;;;5006504;28;20076;-61